Randlett, Oklahoma
Current Conditions -  °F | °C
As of 2:52 AM on Wednesday 22 Oct 2014 (Local Time) from KSPS Reporting Station
Clear Clear  
Wind Chill: 62°   Ceiling: Unl
Heat Index: 62°   Visibility: 10mi
Dew Point: 53°   Wind: 8mph
Humidity: 72%   Direction: 200°SSW
Pressure: 30.05"   Gusts: NA
Location:  34.18°N, 98.46°W
Report Text: KSPS 220752Z AUTO 20007KT 10SM CLR 17/12 A3005 RMK AO2 SLP167 T01670117 TSNO
Loading
Personal Weather Stations






























Interactive Weather Map
Tropical Storm Tracking
New forecast layout! Learn more

10-Day Weather Forecast

Advertisements
Track Severe Weather on mobile